KPWD/PWD METAR and TAF weather

Enter ICAO airport designator
Station Type Date Time Source
KPWD METAR 2021/05/14 22:55 UTC NOAA

KPWD 142255Z AUTO 00000KT 10SM CLR 20/M01 A3001 RMK A01


Station Type Date Time Source
KPWD Decoded METAR 2021/05/14 22:55 UTC NOAA

Station name not available
May 14, 2021 - 06:55 PM EDT / 2021.05.14 2255 UTC
Wind: Calm:0
Visibility: 10 mile(s):0
Sky conditions: clear
Temperature: 68 F (20 C)
Dew Point: 30 F (-1 C)
Relative Humidity: 24%
Pressure (altimeter): 30.01 in. Hg (1016 hPa)
ob: KPWD 142255Z AUTO 00000KT 10SM CLR 20/M01 A3001 RMK A01
cycle: 23

Station Type Date Time Source
KPWD TAF UTC NOAA

Error!

Example: see airport list